sensor_id;sensor_type;location;lat;lon;timestamp;temperature;humidity
10597;DHT22;5346;48.766;8.674;2022-12-10T00:01:48;-1.60;99.90
10597;DHT22;5346;48.766;8.674;2022-12-10T00:04:23;-1.60;99.90
10597;DHT22;5346;48.766;8.674;2022-12-10T00:06:50;-1.60;99.90
10597;DHT22;5346;48.766;8.674;2022-12-10T00:09:19;-1.60;99.90
10597;DHT22;5346;48.766;8.674;2022-12-10T00:12:00;-1.60;99.90
10597;DHT22;5346;48.766;8.674;2022-12-10T00:14:27;-1.60;99.90
10597;DHT22;5346;48.766;8.674;2022-12-10T00:17:01;-1.60;99.90
10597;DHT22;5346;48.766;8.674;2022-12-10T00:19:28;-1.60;99.90
10597;DHT22;5346;48.766;8.674;2022-12-10T00:21:56;-1.60;99.90
10597;DHT22;5346;48.766;8.674;2022-12-10T00:24:29;-1.60;99.90
10597;DHT22;5346;48.766;8.674;2022-12-10T00:26:56;-1.60;99.90
10597;DHT22;5346;48.766;8.674;2022-12-10T00:29:23;-1.60;99.90
10597;DHT22;5346;48.766;8.674;2022-12-10T00:31:57;-1.60;99.90
10597;DHT22;5346;48.766;8.674;2022-12-10T00:34:24;-1.60;99.90
10597;DHT22;5346;48.766;8.674;2022-12-10T00:36:51;-1.60;99.90
10597;DHT22;5346;48.766;8.674;2022-12-10T00:39:24;-1.60;99.90
10597;DHT22;5346;48.766;8.674;2022-12-10T00:41:51;-1.60;99.90
10597;DHT22;5346;48.766;8.674;2022-12-10T00:44:18;-1.60;99.90
10597;DHT22;5346;48.766;8.674;2022-12-10T00:46:52;-1.60;99.90
10597;DHT22;5346;48.766;8.674;2022-12-10T00:49:20;-1.60;99.90
10597;DHT22;5346;48.766;8.674;2022-12-10T00:51:50;-1.60;99.90
10597;DHT22;5346;48.766;8.674;2022-12-10T00:54:23;-1.60;99.90
10597;DHT22;5346;48.766;8.674;2022-12-10T00:56:50;-1.60;99.90
10597;DHT22;5346;48.766;8.674;2022-12-10T00:59:17;-1.60;99.90
10597;DHT22;5346;48.766;8.674;2022-12-10T01:01:50;-1.60;99.90
10597;DHT22;5346;48.766;8.674;2022-12-10T01:04:18;-1.60;99.90
10597;DHT22;5346;48.766;8.674;2022-12-10T01:06:47;-1.60;99.90
10597;DHT22;5346;48.766;8.674;2022-12-10T01:09:28;-1.60;99.90
10597;DHT22;5346;48.766;8.674;2022-12-10T01:11:57;-1.60;99.90
10597;DHT22;5346;48.766;8.674;2022-12-10T01:14:36;-1.60;99.90
10597;DHT22;5346;48.766;8.674;2022-12-10T01:17:04;-1.60;99.90
10597;DHT22;5346;48.766;8.674;2022-12-10T01:19:33;-1.60;99.90
10597;DHT22;5346;48.766;8.674;2022-12-10T01:22:06;-1.60;99.90
10597;DHT22;5346;48.766;8.674;2022-12-10T01:24:33;-1.60;99.90
10597;DHT22;5346;48.766;8.674;2022-12-10T01:27:01;-1.60;99.90
10597;DHT22;5346;48.766;8.674;2022-12-10T01:29:35;-1.60;99.90
10597;DHT22;5346;48.766;8.674;2022-12-10T01:32:02;-1.60;99.90
10597;DHT22;5346;48.766;8.674;2022-12-10T01:34:30;-1.60;99.90
10597;DHT22;5346;48.766;8.674;2022-12-10T01:37:03;-1.70;99.90
10597;DHT22;5346;48.766;8.674;2022-12-10T01:39:30;-1.70;99.90
10597;DHT22;5346;48.766;8.674;2022-12-10T01:41:59;-1.70;99.90
10597;DHT22;5346;48.766;8.674;2022-12-10T01:47:09;-1.70;99.90
10597;DHT22;5346;48.766;8.674;2022-12-10T01:49:43;-1.70;99.90
10597;DHT22;5346;48.766;8.674;2022-12-10T01:52:24;-1.70;99.90
10597;DHT22;5346;48.766;8.674;2022-12-10T01:54:58;-1.70;99.90
10597;DHT22;5346;48.766;8.674;2022-12-10T01:57:26;-1.70;99.90
10597;DHT22;5346;48.766;8.674;2022-12-10T02:00:00;-1.70;99.90
10597;DHT22;5346;48.766;8.674;2022-12-10T02:02:46;-1.70;99.90
10597;DHT22;5346;48.766;8.674;2022-12-10T02:05:43;-1.70;99.90
10597;DHT22;5346;48.766;8.674;2022-12-10T02:08:26;-1.70;99.90
10597;DHT22;5346;48.766;8.674;2022-12-10T02:11:11;-1.70;99.90
10597;DHT22;5346;48.766;8.674;2022-12-10T02:14:19;-1.70;99.90
10597;DHT22;5346;48.766;8.674;2022-12-10T02:17:04;-1.70;99.90
10597;DHT22;5346;48.766;8.674;2022-12-10T02:19:51;-1.70;99.90
10597;DHT22;5346;48.766;8.674;2022-12-10T02:22:28;-1.70;99.90
10597;DHT22;5346;48.766;8.674;2022-12-10T02:25:06;-1.70;99.90
10597;DHT22;5346;48.766;8.674;2022-12-10T02:27:58;-1.70;99.90
10597;DHT22;5346;48.766;8.674;2022-12-10T02:30:53;-1.60;99.90
10597;DHT22;5346;48.766;8.674;2022-12-10T02:33:24;-1.70;99.90
10597;DHT22;5346;48.766;8.674;2022-12-10T02:36:08;-1.70;99.90
10597;DHT22;5346;48.766;8.674;2022-12-10T02:38:38;-1.70;99.90
10597;DHT22;5346;48.766;8.674;2022-12-10T02:41:25;-1.70;99.90
10597;DHT22;5346;48.766;8.674;2022-12-10T02:44:07;-1.70;99.90
10597;DHT22;5346;48.766;8.674;2022-12-10T02:46:38;-1.70;99.90
10597;DHT22;5346;48.766;8.674;2022-12-10T02:49:14;-1.70;99.90
10597;DHT22;5346;48.766;8.674;2022-12-10T02:51:49;-1.70;99.90
10597;DHT22;5346;48.766;8.674;2022-12-10T02:54:37;-1.70;99.90
10597;DHT22;5346;48.766;8.674;2022-12-10T02:57:32;-1.70;99.90
10597;DHT22;5346;48.766;8.674;2022-12-10T03:00:20;-1.80;99.90
10597;DHT22;5346;48.766;8.674;2022-12-10T03:08:43;-1.80;99.90
10597;DHT22;5346;48.766;8.674;2022-12-10T03:11:22;-1.80;99.90
10597;DHT22;5346;48.766;8.674;2022-12-10T03:13:54;-1.80;99.90
10597;DHT22;5346;48.766;8.674;2022-12-10T03:17:12;-1.70;99.90
10597;DHT22;5346;48.766;8.674;2022-12-10T03:19:43;-1.70;99.90
10597;DHT22;5346;48.766;8.674;2022-12-10T03:22:20;-1.70;99.90
10597;DHT22;5346;48.766;8.674;2022-12-10T03:24:48;-1.80;99.90
10597;DHT22;5346;48.766;8.674;2022-12-10T03:27:17;-1.80;99.90
10597;DHT22;5346;48.766;8.674;2022-12-10T03:29:55;-1.80;99.90
10597;DHT22;5346;48.766;8.674;2022-12-10T03:32:26;-1.80;99.90
10597;DHT22;5346;48.766;8.674;2022-12-10T03:35:01;-1.80;99.90
10597;DHT22;5346;48.766;8.674;2022-12-10T03:37:29;-1.80;99.90
10597;DHT22;5346;48.766;8.674;2022-12-10T03:39:58;-1.80;99.90
10597;DHT22;5346;48.766;8.674;2022-12-10T03:42:35;-1.80;99.90
10597;DHT22;5346;48.766;8.674;2022-12-10T03:45:04;-1.80;99.90
10597;DHT22;5346;48.766;8.674;2022-12-10T03:47:31;-1.80;99.90
10597;DHT22;5346;48.766;8.674;2022-12-10T03:50:06;-1.80;99.90
10597;DHT22;5346;48.766;8.674;2022-12-10T03:52:46;-1.80;99.90
10597;DHT22;5346;48.766;8.674;2022-12-10T03:55:19;-1.70;99.90
10597;DHT22;5346;48.766;8.674;2022-12-10T03:57:47;-1.70;99.90
10597;DHT22;5346;48.766;8.674;2022-12-10T04:00:15;-1.70;99.90
10597;DHT22;5346;48.766;8.674;2022-12-10T04:02:49;-1.70;99.90
10597;DHT22;5346;48.766;8.674;2022-12-10T04:05:16;-1.70;99.90
10597;DHT22;5346;48.766;8.674;2022-12-10T04:07:43;-1.70;99.90
10597;DHT22;5346;48.766;8.674;2022-12-10T04:10:17;-1.70;99.90
10597;DHT22;5346;48.766;8.674;2022-12-10T04:12:44;-1.70;99.90
10597;DHT22;5346;48.766;8.674;2022-12-10T04:15:38;-1.70;99.90
10597;DHT22;5346;48.766;8.674;2022-12-10T04:18:24;-1.70;99.90
10597;DHT22;5346;48.766;8.674;2022-12-10T04:20:57;-1.70;99.90
10597;DHT22;5346;48.766;8.674;2022-12-10T04:23:43;-1.70;99.90
10597;DHT22;5346;48.766;8.674;2022-12-10T04:26:34;-1.70;99.90
10597;DHT22;5346;48.766;8.674;2022-12-10T04:29:22;-1.80;99.90
10597;DHT22;5346;48.766;8.674;2022-12-10T04:31:57;-1.80;99.90
10597;DHT22;5346;48.766;8.674;2022-12-10T04:34:25;-1.80;99.90
10597;DHT22;5346;48.766;8.674;2022-12-10T04:36:53;-1.80;99.90
10597;DHT22;5346;48.766;8.674;2022-12-10T04:39:26;-1.80;99.90
10597;DHT22;5346;48.766;8.674;2022-12-10T04:41:53;-1.80;99.90
10597;DHT22;5346;48.766;8.674;2022-12-10T04:44:21;-1.80;99.90
10597;DHT22;5346;48.766;8.674;2022-12-10T04:46:54;-1.80;99.90
10597;DHT22;5346;48.766;8.674;2022-12-10T04:49:23;-1.80;99.90
10597;DHT22;5346;48.766;8.674;2022-12-10T04:51:50;-1.80;99.90
10597;DHT22;5346;48.766;8.674;2022-12-10T04:54:26;-1.80;99.90
10597;DHT22;5346;48.766;8.674;2022-12-10T04:56:53;-1.80;99.90
10597;DHT22;5346;48.766;8.674;2022-12-10T04:59:21;-1.80;99.90
10597;DHT22;5346;48.766;8.674;2022-12-10T05:01:54;-1.80;99.90
10597;DHT22;5346;48.766;8.674;2022-12-10T05:04:21;-1.80;99.90
10597;DHT22;5346;48.766;8.674;2022-12-10T05:06:49;-1.80;99.90
10597;DHT22;5346;48.766;8.674;2022-12-10T05:09:22;-1.90;99.90
10597;DHT22;5346;48.766;8.674;2022-12-10T05:11:49;-1.90;99.90
10597;DHT22;5346;48.766;8.674;2022-12-10T05:14:16;-1.90;99.90
10597;DHT22;5346;48.766;8.674;2022-12-10T05:16:51;-1.90;99.90
10597;DHT22;5346;48.766;8.674;2022-12-10T05:19:19;-1.90;99.90
10597;DHT22;5346;48.766;8.674;2022-12-10T05:21:46;-1.90;99.90
10597;DHT22;5346;48.766;8.674;2022-12-10T05:24:38;-1.90;99.90
10597;DHT22;5346;48.766;8.674;2022-12-10T05:27:05;-1.90;99.90
10597;DHT22;5346;48.766;8.674;2022-12-10T05:29:33;-1.90;99.90
10597;DHT22;5346;48.766;8.674;2022-12-10T05:32:07;-1.90;99.90
10597;DHT22;5346;48.766;8.674;2022-12-10T05:34:34;-1.90;99.90
10597;DHT22;5346;48.766;8.674;2022-12-10T05:37:01;-1.90;99.90
10597;DHT22;5346;48.766;8.674;2022-12-10T05:39:35;-1.90;99.90
10597;DHT22;5346;48.766;8.674;2022-12-10T05:42:02;-1.90;99.90
10597;DHT22;5346;48.766;8.674;2022-12-10T05:44:29;-1.90;99.90
10597;DHT22;5346;48.766;8.674;2022-12-10T05:47:03;-1.90;99.90
10597;DHT22;5346;48.766;8.674;2022-12-10T05:49:30;-1.90;99.90
10597;DHT22;5346;48.766;8.674;2022-12-10T05:51:59;-1.90;99.90
10597;DHT22;5346;48.766;8.674;2022-12-10T05:54:34;-1.90;99.90
10597;DHT22;5346;48.766;8.674;2022-12-10T05:57:07;-1.90;99.90
10597;DHT22;5346;48.766;8.674;2022-12-10T05:59:42;-1.90;99.90
10597;DHT22;5346;48.766;8.674;2022-12-10T06:02:10;-1.90;99.90
10597;DHT22;5346;48.766;8.674;2022-12-10T06:04:38;-1.90;99.90
10597;DHT22;5346;48.766;8.674;2022-12-10T06:07:12;-1.90;99.90
10597;DHT22;5346;48.766;8.674;2022-12-10T06:09:39;-2.00;99.90
10597;DHT22;5346;48.766;8.674;2022-12-10T06:12:06;-2.00;99.90
10597;DHT22;5346;48.766;8.674;2022-12-10T06:14:39;-2.00;99.90
10597;DHT22;5346;48.766;8.674;2022-12-10T06:17:06;-2.00;99.90
10597;DHT22;5346;48.766;8.674;2022-12-10T06:19:33;-2.00;99.90
10597;DHT22;5346;48.766;8.674;2022-12-10T06:22:07;-2.00;99.90
10597;DHT22;5346;48.766;8.674;2022-12-10T06:24:34;-2.00;99.90
10597;DHT22;5346;48.766;8.674;2022-12-10T06:27:01;-2.00;99.90
10597;DHT22;5346;48.766;8.674;2022-12-10T06:29:35;-2.00;99.90
10597;DHT22;5346;48.766;8.674;2022-12-10T06:32:02;-2.00;99.90
10597;DHT22;5346;48.766;8.674;2022-12-10T06:34:30;-2.10;99.90
10597;DHT22;5346;48.766;8.674;2022-12-10T06:37:08;-2.10;99.90
10597;DHT22;5346;48.766;8.674;2022-12-10T06:39:35;-2.10;99.90
10597;DHT22;5346;48.766;8.674;2022-12-10T06:42:02;-2.10;99.90
10597;DHT22;5346;48.766;8.674;2022-12-10T06:44:37;-2.10;99.90
10597;DHT22;5346;48.766;8.674;2022-12-10T06:47:04;-2.00;99.90
10597;DHT22;5346;48.766;8.674;2022-12-10T06:49:31;-2.00;99.90
10597;DHT22;5346;48.766;8.674;2022-12-10T06:52:12;-2.00;99.90
10597;DHT22;5346;48.766;8.674;2022-12-10T06:54:53;-2.00;99.90
10597;DHT22;5346;48.766;8.674;2022-12-10T06:57:28;-2.00;99.90
10597;DHT22;5346;48.766;8.674;2022-12-10T06:59:56;-2.10;99.90
10597;DHT22;5346;48.766;8.674;2022-12-10T07:02:23;-2.10;99.90
10597;DHT22;5346;48.766;8.674;2022-12-10T07:04:58;-2.10;99.90
10597;DHT22;5346;48.766;8.674;2022-12-10T07:07:25;-2.10;99.90
10597;DHT22;5346;48.766;8.674;2022-12-10T07:09:52;-2.10;99.90
10597;DHT22;5346;48.766;8.674;2022-12-10T07:12:27;-2.10;99.90
10597;DHT22;5346;48.766;8.674;2022-12-10T07:14:54;-2.10;99.90
10597;DHT22;5346;48.766;8.674;2022-12-10T07:17:21;-2.10;99.90
10597;DHT22;5346;48.766;8.674;2022-12-10T07:19:54;-2.10;99.90
10597;DHT22;5346;48.766;8.674;2022-12-10T07:22:21;-2.10;99.90
10597;DHT22;5346;48.766;8.674;2022-12-10T07:24:49;-2.10;99.90
10597;DHT22;5346;48.766;8.674;2022-12-10T07:27:23;-2.10;99.90
10597;DHT22;5346;48.766;8.674;2022-12-10T07:29:52;-2.10;99.90
10597;DHT22;5346;48.766;8.674;2022-12-10T07:32:19;-2.00;99.90
10597;DHT22;5346;48.766;8.674;2022-12-10T07:34:52;-2.10;99.90
10597;DHT22;5346;48.766;8.674;2022-12-10T07:37:19;-2.10;99.90
10597;DHT22;5346;48.766;8.674;2022-12-10T07:39:46;-2.10;99.90
10597;DHT22;5346;48.766;8.674;2022-12-10T07:42:20;-2.10;99.90
10597;DHT22;5346;48.766;8.674;2022-12-10T07:44:48;-2.00;99.90
10597;DHT22;5346;48.766;8.674;2022-12-10T07:47:15;-2.00;99.90
10597;DHT22;5346;48.766;8.674;2022-12-10T07:49:50;-2.00;99.90
10597;DHT22;5346;48.766;8.674;2022-12-10T07:52:23;-2.00;99.90
10597;DHT22;5346;48.766;8.674;2022-12-10T07:54:56;-2.00;99.90
10597;DHT22;5346;48.766;8.674;2022-12-10T07:57:23;-2.00;99.90
10597;DHT22;5346;48.766;8.674;2022-12-10T07:59:51;-1.90;99.90
10597;DHT22;5346;48.766;8.674;2022-12-10T08:02:24;-1.90;77.20
10597;DHT22;5346;48.766;8.674;2022-12-10T08:04:51;-2.00;48.80
10597;DHT22;5346;48.766;8.674;2022-12-10T08:07:18;-1.90;31.90
10597;DHT22;5346;48.766;8.674;2022-12-10T08:09:52;-1.90;9.40
10597;DHT22;5346;48.766;8.674;2022-12-10T08:12:19;-1.90;1.00
10597;DHT22;5346;48.766;8.674;2022-12-10T08:14:46;-1.90;1.00
10597;DHT22;5346;48.766;8.674;2022-12-10T08:17:20;-1.80;1.00
10597;DHT22;5346;48.766;8.674;2022-12-10T08:19:48;-1.80;1.00
10597;DHT22;5346;48.766;8.674;2022-12-10T08:22:16;-1.70;1.00
10597;DHT22;5346;48.766;8.674;2022-12-10T08:24:49;-1.70;1.00
10597;DHT22;5346;48.766;8.674;2022-12-10T08:27:16;-1.60;1.00
10597;DHT22;5346;48.766;8.674;2022-12-10T08:29:43;-1.70;1.00
10597;DHT22;5346;48.766;8.674;2022-12-10T08:32:17;-1.60;1.00
10597;DHT22;5346;48.766;8.674;2022-12-10T08:34:44;-1.60;1.00
10597;DHT22;5346;48.766;8.674;2022-12-10T08:37:12;-1.70;1.00
10597;DHT22;5346;48.766;8.674;2022-12-10T08:39:46;-1.70;1.00
10597;DHT22;5346;48.766;8.674;2022-12-10T08:42:13;-1.60;1.00
10597;DHT22;5346;48.766;8.674;2022-12-10T08:44:40;-1.70;1.00
10597;DHT22;5346;48.766;8.674;2022-12-10T08:47:13;-1.70;99.90
10597;DHT22;5346;48.766;8.674;2022-12-10T08:49:40;-1.70;99.90
10597;DHT22;5346;48.766;8.674;2022-12-10T08:52:09;-1.70;99.90
10597;DHT22;5346;48.766;8.674;2022-12-10T08:54:42;-1.70;99.90
10597;DHT22;5346;48.766;8.674;2022-12-10T08:57:16;-1.70;99.90
10597;DHT22;5346;48.766;8.674;2022-12-10T08:59:50;-1.70;99.90
10597;DHT22;5346;48.766;8.674;2022-12-10T09:02:17;-1.60;99.90
10597;DHT22;5346;48.766;8.674;2022-12-10T09:04:44;-1.60;99.90
10597;DHT22;5346;48.766;8.674;2022-12-10T09:07:19;-1.50;99.90
10597;DHT22;5346;48.766;8.674;2022-12-10T09:09:46;-1.50;99.90
10597;DHT22;5346;48.766;8.674;2022-12-10T09:12:13;-1.50;99.90
10597;DHT22;5346;48.766;8.674;2022-12-10T09:14:47;-1.50;99.90
10597;DHT22;5346;48.766;8.674;2022-12-10T09:17:14;-1.50;85.20
10597;DHT22;5346;48.766;8.674;2022-12-10T09:19:42;-1.40;91.70
10597;DHT22;5346;48.766;8.674;2022-12-10T09:22:15;-1.40;99.90
10597;DHT22;5346;48.766;8.674;2022-12-10T09:24:43;-1.30;97.10
10597;DHT22;5346;48.766;8.674;2022-12-10T09:27:10;-1.30;1.00
10597;DHT22;5346;48.766;8.674;2022-12-10T09:29:43;-1.30;1.00
10597;DHT22;5346;48.766;8.674;2022-12-10T09:32:10;-1.40;1.00
10597;DHT22;5346;48.766;8.674;2022-12-10T09:34:37;-1.40;1.00
10597;DHT22;5346;48.766;8.674;2022-12-10T09:37:11;-1.40;1.00
10597;DHT22;5346;48.766;8.674;2022-12-10T09:39:38;-1.30;1.00
10597;DHT22;5346;48.766;8.674;2022-12-10T09:45:34;-1.30;1.00
10597;DHT22;5346;48.766;8.674;2022-12-10T09:48:29;-1.40;1.00
10597;DHT22;5346;48.766;8.674;2022-12-10T09:51:24;-1.40;1.00
10597;DHT22;5346;48.766;8.674;2022-12-10T09:54:49;-1.40;1.00
10597;DHT22;5346;48.766;8.674;2022-12-10T09:57:36;-1.40;1.00
10597;DHT22;5346;48.766;8.674;2022-12-10T10:00:23;-1.30;1.00
10597;DHT22;5346;48.766;8.674;2022-12-10T10:03:03;-1.20;1.00
10597;DHT22;5346;48.766;8.674;2022-12-10T10:05:34;-1.10;1.00
10597;DHT22;5346;48.766;8.674;2022-12-10T10:08:36;-1.00;1.00
10597;DHT22;5346;48.766;8.674;2022-12-10T10:11:22;-0.90;1.40
10597;DHT22;5346;48.766;8.674;2022-12-10T10:14:09;-0.90;99.90
10597;DHT22;5346;48.766;8.674;2022-12-10T10:16:53;-0.90;99.90
10597;DHT22;5346;48.766;8.674;2022-12-10T10:19:33;-0.90;1.00
10597;DHT22;5346;48.766;8.674;2022-12-10T10:22:04;-0.80;1.00
10597;DHT22;5346;48.766;8.674;2022-12-10T10:24:44;-0.80;1.00
10597;DHT22;5346;48.766;8.674;2022-12-10T10:27:17;-0.80;1.00
10597;DHT22;5346;48.766;8.674;2022-12-10T10:29:56;-0.80;28.50
10597;DHT22;5346;48.766;8.674;2022-12-10T10:36:05;-0.70;3.90
10597;DHT22;5346;48.766;8.674;2022-12-10T10:38:27;-0.60;1.00
10597;DHT22;5346;48.766;8.674;2022-12-10T10:41:03;-0.50;1.00
10597;DHT22;5346;48.766;8.674;2022-12-10T10:43:34;-0.50;1.00
10597;DHT22;5346;48.766;8.674;2022-12-10T10:46:21;-0.60;1.00
10597;DHT22;5346;48.766;8.674;2022-12-10T10:48:50;-0.60;1.00
10597;DHT22;5346;48.766;8.674;2022-12-10T10:51:22;-0.50;99.90
10597;DHT22;5346;48.766;8.674;2022-12-10T10:53:58;-0.50;99.90
10597;DHT22;5346;48.766;8.674;2022-12-10T10:56:40;-0.50;1.00
10597;DHT22;5346;48.766;8.674;2022-12-10T11:02:01;-0.30;99.90
10597;DHT22;5346;48.766;8.674;2022-12-10T11:04:55;-0.30;99.90
10597;DHT22;5346;48.766;8.674;2022-12-10T11:10:18;-0.20;99.90
10597;DHT22;5346;48.766;8.674;2022-12-10T11:13:05;-0.10;87.50
10597;DHT22;5346;48.766;8.674;2022-12-10T11:15:41;-0.10;99.90
10597;DHT22;5346;48.766;8.674;2022-12-10T11:21:17;-0.10;99.90
10597;DHT22;5346;48.766;8.674;2022-12-10T11:23:53;-0.10;6.00
10597;DHT22;5346;48.766;8.674;2022-12-10T11:26:40;0.00;1.00
10597;DHT22;5346;48.766;8.674;2022-12-10T11:30:24;-0.10;1.00
10597;DHT22;5346;48.766;8.674;2022-12-10T11:32:58;-0.10;1.00
10597;DHT22;5346;48.766;8.674;2022-12-10T11:41:11;0.00;1.00
10597;DHT22;5346;48.766;8.674;2022-12-10T11:53:41;0.20;1.00
10597;DHT22;5346;48.766;8.674;2022-12-10T11:56:38;0.20;1.00
10597;DHT22;5346;48.766;8.674;2022-12-10T11:59:34;0.10;99.90
10597;DHT22;5346;48.766;8.674;2022-12-10T12:08:47;-0.20;99.90
10597;DHT22;5346;48.766;8.674;2022-12-10T12:14:45;-0.50;1.00
10597;DHT22;5346;48.766;8.674;2022-12-10T12:17:24;-0.60;1.00
10597;DHT22;5346;48.766;8.674;2022-12-10T12:20:49;-0.60;1.00
10597;DHT22;5346;48.766;8.674;2022-12-10T12:26:05;-0.70;1.00
10597;DHT22;5346;48.766;8.674;2022-12-10T12:32:25;-0.70;1.00
10597;DHT22;5346;48.766;8.674;2022-12-10T12:35:13;-0.70;1.00
10597;DHT22;5346;48.766;8.674;2022-12-10T12:38:53;-0.60;1.00
10597;DHT22;5346;48.766;8.674;2022-12-10T12:41:30;-0.70;1.00
10597;DHT22;5346;48.766;8.674;2022-12-10T12:47:36;-0.90;1.00
10597;DHT22;5346;48.766;8.674;2022-12-10T12:51:09;-0.90;1.00
10597;DHT22;5346;48.766;8.674;2022-12-10T12:54:11;-0.80;1.00
10597;DHT22;5346;48.766;8.674;2022-12-10T12:57:02;-0.70;1.00
10597;DHT22;5346;48.766;8.674;2022-12-10T12:59:57;-0.60;1.00
10597;DHT22;5346;48.766;8.674;2022-12-10T13:05:30;-0.70;1.00
10597;DHT22;5346;48.766;8.674;2022-12-10T13:11:15;-0.80;1.00
10597;DHT22;5346;48.766;8.674;2022-12-10T13:27:30;-0.90;99.90
10597;DHT22;5346;48.766;8.674;2022-12-10T13:33:05;-1.00;1.00
10597;DHT22;5346;48.766;8.674;2022-12-10T13:35:59;-1.00;1.00
10597;DHT22;5346;48.766;8.674;2022-12-10T13:38:54;-1.10;1.00
10597;DHT22;5346;48.766;8.674;2022-12-10T13:41:38;-1.10;1.00
10597;DHT22;5346;48.766;8.674;2022-12-10T13:44:49;-1.30;1.00
10597;DHT22;5346;48.766;8.674;2022-12-10T13:47:54;-1.30;1.00
10597;DHT22;5346;48.766;8.674;2022-12-10T13:50:51;-1.40;1.00
10597;DHT22;5346;48.766;8.674;2022-12-10T13:53:41;-1.40;99.90
10597;DHT22;5346;48.766;8.674;2022-12-10T13:56:45;-1.40;99.90
10597;DHT22;5346;48.766;8.674;2022-12-10T14:02:46;-1.40;99.90
10597;DHT22;5346;48.766;8.674;2022-12-10T14:05:50;-1.30;1.00
10597;DHT22;5346;48.766;8.674;2022-12-10T14:08:34;-1.30;1.00
10597;DHT22;5346;48.766;8.674;2022-12-10T14:11:32;-1.30;1.00
10597;DHT22;5346;48.766;8.674;2022-12-10T14:14:08;-1.40;1.00
10597;DHT22;5346;48.766;8.674;2022-12-10T14:16:46;-1.40;1.00
10597;DHT22;5346;48.766;8.674;2022-12-10T14:19:15;-1.50;1.00
10597;DHT22;5346;48.766;8.674;2022-12-10T14:21:45;-1.50;8.10
10597;DHT22;5346;48.766;8.674;2022-12-10T14:24:28;-1.60;79.60
10597;DHT22;5346;48.766;8.674;2022-12-10T14:27:14;-1.60;99.90
10597;DHT22;5346;48.766;8.674;2022-12-10T14:29:52;-1.70;99.90
10597;DHT22;5346;48.766;8.674;2022-12-10T14:32:36;-1.70;99.90
10597;DHT22;5346;48.766;8.674;2022-12-10T14:35:23;-1.80;99.90
10597;DHT22;5346;48.766;8.674;2022-12-10T14:37:55;-1.80;99.90
10597;DHT22;5346;48.766;8.674;2022-12-10T14:40:39;-1.80;99.90
10597;DHT22;5346;48.766;8.674;2022-12-10T14:43:14;-1.80;99.90
10597;DHT22;5346;48.766;8.674;2022-12-10T14:45:58;-1.80;99.90
10597;DHT22;5346;48.766;8.674;2022-12-10T14:48:27;-1.90;99.90
10597;DHT22;5346;48.766;8.674;2022-12-10T14:51:06;-1.90;99.90
10597;DHT22;5346;48.766;8.674;2022-12-10T14:53:49;-2.00;99.90
10597;DHT22;5346;48.766;8.674;2022-12-10T14:56:34;-2.00;99.90
10597;DHT22;5346;48.766;8.674;2022-12-10T14:59:12;-2.10;99.90
10597;DHT22;5346;48.766;8.674;2022-12-10T15:01:53;-2.10;99.90
10597;DHT22;5346;48.766;8.674;2022-12-10T15:04:31;-2.20;99.90
10597;DHT22;5346;48.766;8.674;2022-12-10T15:07:17;-2.20;99.90
10597;DHT22;5346;48.766;8.674;2022-12-10T15:09:47;-2.30;99.90
10597;DHT22;5346;48.766;8.674;2022-12-10T15:12:41;-2.30;99.90
10597;DHT22;5346;48.766;8.674;2022-12-10T15:15:38;-2.30;99.90
10597;DHT22;5346;48.766;8.674;2022-12-10T15:18:17;-2.30;99.90
10597;DHT22;5346;48.766;8.674;2022-12-10T15:20:50;-2.40;99.90
10597;DHT22;5346;48.766;8.674;2022-12-10T15:28:37;-2.50;99.90
10597;DHT22;5346;48.766;8.674;2022-12-10T15:34:08;-2.50;99.90
10597;DHT22;5346;48.766;8.674;2022-12-10T15:36:48;-2.60;1.00
10597;DHT22;5346;48.766;8.674;2022-12-10T15:39:29;-2.60;1.00
10597;DHT22;5346;48.766;8.674;2022-12-10T15:42:39;-2.70;1.00
10597;DHT22;5346;48.766;8.674;2022-12-10T15:45:24;-2.70;1.00
10597;DHT22;5346;48.766;8.674;2022-12-10T15:47:57;-2.70;1.00
10597;DHT22;5346;48.766;8.674;2022-12-10T15:50:39;-2.70;1.00
10597;DHT22;5346;48.766;8.674;2022-12-10T15:53:13;-2.80;1.00
10597;DHT22;5346;48.766;8.674;2022-12-10T15:56:01;-2.80;1.00
10597;DHT22;5346;48.766;8.674;2022-12-10T15:58:29;-2.80;1.00
10597;DHT22;5346;48.766;8.674;2022-12-10T16:01:03;-2.90;1.00
10597;DHT22;5346;48.766;8.674;2022-12-10T16:03:32;-2.90;1.00
10597;DHT22;5346;48.766;8.674;2022-12-10T16:05:59;-2.90;1.00
10597;DHT22;5346;48.766;8.674;2022-12-10T16:08:33;-2.90;1.00
10597;DHT22;5346;48.766;8.674;2022-12-10T16:11:31;-2.90;1.00
10597;DHT22;5346;48.766;8.674;2022-12-10T16:14:05;-2.90;1.00
10597;DHT22;5346;48.766;8.674;2022-12-10T16:16:33;-3.00;1.00
10597;DHT22;5346;48.766;8.674;2022-12-10T16:19:00;-3.00;1.00
10597;DHT22;5346;48.766;8.674;2022-12-10T16:21:34;-3.00;1.00
10597;DHT22;5346;48.766;8.674;2022-12-10T16:24:01;-3.00;1.00
10597;DHT22;5346;48.766;8.674;2022-12-10T16:26:28;-3.00;1.00
10597;DHT22;5346;48.766;8.674;2022-12-10T16:29:01;-3.10;1.00
10597;DHT22;5346;48.766;8.674;2022-12-10T16:31:28;-3.10;28.20
10597;DHT22;5346;48.766;8.674;2022-12-10T16:33:56;-3.10;99.90
10597;DHT22;5346;48.766;8.674;2022-12-10T16:36:29;-3.10;99.90
10597;DHT22;5346;48.766;8.674;2022-12-10T16:38:57;-3.10;99.90
10597;DHT22;5346;48.766;8.674;2022-12-10T16:41:24;-3.10;99.90
10597;DHT22;5346;48.766;8.674;2022-12-10T16:43:58;-3.10;99.90
10597;DHT22;5346;48.766;8.674;2022-12-10T16:46:25;-3.00;99.90
10597;DHT22;5346;48.766;8.674;2022-12-10T16:48:52;-3.00;99.90
10597;DHT22;5346;48.766;8.674;2022-12-10T16:51:28;-3.10;99.90
10597;DHT22;5346;48.766;8.674;2022-12-10T16:54:16;-3.10;99.90
10597;DHT22;5346;48.766;8.674;2022-12-10T16:56:50;-3.10;99.90
10597;DHT22;5346;48.766;8.674;2022-12-10T16:59:17;-3.10;99.90
10597;DHT22;5346;48.766;8.674;2022-12-10T17:01:44;-3.10;99.90
10597;DHT22;5346;48.766;8.674;2022-12-10T17:04:18;-3.10;99.90
10597;DHT22;5346;48.766;8.674;2022-12-10T17:06:46;-3.10;99.90
10597;DHT22;5346;48.766;8.674;2022-12-10T17:09:13;-3.10;99.90
10597;DHT22;5346;48.766;8.674;2022-12-10T17:11:46;-3.10;99.90
10597;DHT22;5346;48.766;8.674;2022-12-10T17:14:38;-3.10;99.90
10597;DHT22;5346;48.766;8.674;2022-12-10T17:17:15;-3.20;99.90
10597;DHT22;5346;48.766;8.674;2022-12-10T17:19:42;-3.20;99.90
10597;DHT22;5346;48.766;8.674;2022-12-10T17:22:11;-3.30;99.90
10597;DHT22;5346;48.766;8.674;2022-12-10T17:24:45;-3.30;99.90
10597;DHT22;5346;48.766;8.674;2022-12-10T17:27:16;-3.30;99.90
10597;DHT22;5346;48.766;8.674;2022-12-10T17:29:46;-3.30;1.00
10597;DHT22;5346;48.766;8.674;2022-12-10T17:32:26;-3.30;1.00
10597;DHT22;5346;48.766;8.674;2022-12-10T17:34:56;-3.20;1.00
10597;DHT22;5346;48.766;8.674;2022-12-10T17:37:25;-3.20;1.00
10597;DHT22;5346;48.766;8.674;2022-12-10T17:40:17;-3.20;1.00
10597;DHT22;5346;48.766;8.674;2022-12-10T17:42:46;-3.10;1.00
10597;DHT22;5346;48.766;8.674;2022-12-10T17:45:19;-3.10;1.00
10597;DHT22;5346;48.766;8.674;2022-12-10T17:47:48;-3.10;99.90
10597;DHT22;5346;48.766;8.674;2022-12-10T17:50:24;-3.20;99.90
10597;DHT22;5346;48.766;8.674;2022-12-10T17:53:09;-3.20;1.00
10597;DHT22;5346;48.766;8.674;2022-12-10T17:55:56;-3.20;1.00
10597;DHT22;5346;48.766;8.674;2022-12-10T17:58:32;-3.20;1.00
10597;DHT22;5346;48.766;8.674;2022-12-10T18:01:02;-3.10;1.00
10597;DHT22;5346;48.766;8.674;2022-12-10T18:03:29;-3.20;1.00
10597;DHT22;5346;48.766;8.674;2022-12-10T18:06:04;-3.10;1.00
10597;DHT22;5346;48.766;8.674;2022-12-10T18:08:37;-3.10;1.00
10597;DHT22;5346;48.766;8.674;2022-12-10T18:11:16;-3.10;1.00
10597;DHT22;5346;48.766;8.674;2022-12-10T18:13:45;-3.10;1.00
10597;DHT22;5346;48.766;8.674;2022-12-10T18:16:22;-3.10;1.00
10597;DHT22;5346;48.766;8.674;2022-12-10T18:18:55;-3.00;1.00